Time;durP1;ratioP1;P1;durP2;ratioP2;P2;SDS_P1;SDS_P2;PMS_P1;PMS_P2;Temp;Humidity;BMP_temperature;BMP_pressure;BME280_temperature;BME280_humidity;BME280_pressure;Samples;Min_cycle;Max_cycle;Signal;HPM_P1;HPM_P2
2022/12/21 00:00:00;;;;;;;5.57;3.90;;;9.90;73.30;;;13.05;46.59;97426.91;5041817;28;20080;-55
2022/12/21 00:02:39;;;;;;;6.00;3.77;;;9.90;73.40;;;13.06;47.16;97424.03;5042980;28;20041;-55
2022/12/21 00:05:08;;;;;;;8.20;4.27;;;9.90;73.70;;;13.06;46.81;97426.72;5042104;28;20046;-49
2022/12/21 00:07:36;;;;;;;6.53;4.33;;;9.90;74.10;;;13.06;46.73;97421.38;5040400;28;20045;-53
2022/12/21 00:10:05;;;;;;;5.30;4.23;;;9.90;74.30;;;13.07;47.13;97423.03;5042000;28;20104;-54
2022/12/21 00:12:33;;;;;;;5.67;3.90;;;9.80;74.50;;;13.08;47.13;97416.66;5040541;28;20045;-52
2022/12/21 00:15:01;;;;;;;5.17;3.27;;;9.90;74.80;;;13.10;46.94;97424.50;5042130;28;20064;-51
2022/12/21 00:17:28;;;;;;;4.73;3.50;;;9.90;75.10;;;13.11;47.26;97418.97;5041926;28;20049;-55
2022/12/21 00:19:56;;;;;;;7.20;3.80;;;9.90;75.40;;;13.12;47.30;97412.59;5041865;28;20059;-53
2022/12/21 00:22:24;;;;;;;5.17;3.57;;;9.90;75.50;;;13.14;47.22;97415.97;5041192;28;20240;-54
2022/12/21 00:24:52;;;;;;;3.87;3.00;;;9.90;75.60;;;13.14;47.47;97412.44;5041787;28;20037;-54
2022/12/21 00:27:20;;;;;;;6.27;3.00;;;9.90;75.90;;;13.14;47.37;97410.63;5042029;28;20443;-55
2022/12/21 00:29:48;;;;;;;8.20;3.37;;;9.90;76.00;;;13.15;47.54;97417.59;5041654;28;20387;-53
2022/12/21 00:32:15;;;;;;;7.40;3.63;;;9.90;76.30;;;13.16;47.44;97421.94;5040239;28;20047;-51
2022/12/21 00:34:43;;;;;;;6.20;3.43;;;9.90;76.30;;;13.16;47.71;97418.44;5041365;28;20052;-55
2022/12/21 00:37:11;;;;;;;5.20;3.30;;;9.90;76.60;;;13.14;47.68;97418.63;5041735;28;20038;-54
2022/12/21 00:39:39;;;;;;;5.90;3.87;;;9.90;76.80;;;13.15;47.42;97420.28;5041971;28;20251;-52
2022/12/21 00:42:07;;;;;;;4.30;2.93;;;9.90;76.90;;;13.16;47.59;97419.28;5040336;28;20049;-53
2022/12/21 00:44:36;;;;;;;4.33;3.30;;;9.90;77.00;;;13.18;47.79;97430.63;5041266;28;20057;-55
2022/12/21 00:47:03;;;;;;;6.83;3.40;;;9.90;77.10;;;13.16;47.85;97419.28;5041651;28;20041;-54
2022/12/21 00:49:31;;;;;;;5.30;3.43;;;9.90;77.50;;;13.18;48.12;97427.94;5041666;28;20044;-54
2022/12/21 00:51:59;;;;;;;5.40;3.37;;;9.90;77.90;;;13.18;48.06;97417.25;5041547;28;20061;-55
2022/12/21 00:54:27;;;;;;;5.50;3.60;;;9.90;78.10;;;13.18;48.05;97422.59;5039384;28;20347;-51
2022/12/21 00:56:55;;;;;;;6.47;3.40;;;9.90;78.10;;;13.20;48.07;97417.03;5040710;28;20374;-54
2022/12/21 00:59:24;;;;;;;5.13;3.20;;;10.00;78.10;;;13.22;48.18;97417.69;5040311;28;20351;-55
2022/12/21 01:01:51;;;;;;;4.90;3.40;;;10.00;78.10;;;13.24;48.30;97418.38;5042963;28;20037;-55
2022/12/21 01:04:21;;;;;;;5.73;3.53;;;10.00;78.50;;;13.24;48.32;97412.16;5037266;28;20037;-52
2022/12/21 01:06:48;;;;;;;6.30;3.43;;;10.00;78.80;;;13.24;48.48;97406.81;5045221;28;20362;-55
2022/12/21 01:09:16;;;;;;;4.20;3.03;;;10.00;79.00;;;13.24;48.34;97407.66;5044894;28;20033;-54
2022/12/21 01:11:44;;;;;;;4.90;3.13;;;10.00;79.20;;;13.22;48.90;97408.84;5043592;28;20068;-54
2022/12/21 01:14:12;;;;;;;8.80;3.03;;;10.00;79.60;;;13.23;48.53;97406.00;5045078;28;20055;-54
2022/12/21 01:16:40;;;;;;;5.83;3.40;;;10.00;79.60;;;13.23;48.65;97403.31;5045109;28;20043;-54
2022/12/21 01:19:09;;;;;;;4.43;2.80;;;10.00;79.80;;;13.26;48.98;97407.47;5044030;28;20059;-56
2022/12/21 01:21:37;;;;;;;4.67;3.03;;;10.00;80.00;;;13.26;49.05;97402.13;5043135;28;20045;-54
2022/12/21 01:24:06;;;;;;;4.27;2.60;;;10.00;80.50;;;13.26;49.20;97402.97;5044603;28;20252;-55
2022/12/21 01:26:34;;;;;;;4.70;2.83;;;10.00;81.00;;;13.26;48.99;97402.97;5043842;28;20524;-52
2022/12/21 01:29:02;;;;;;;4.03;2.87;;;10.10;81.40;;;13.25;49.33;97409.31;5043713;28;20049;-54
2022/12/21 01:31:33;;;;;;;4.93;2.80;;;10.10;82.00;;;13.27;49.74;97414.47;5044432;28;20041;-53
2022/12/21 01:34:01;;;;;;;4.43;2.60;;;10.10;82.40;;;13.24;49.98;97409.50;5044693;28;20057;-54
2022/12/21 01:36:31;;;;;;;3.57;2.50;;;10.10;82.70;;;13.26;50.07;97419.00;5043255;28;20370;-54
2022/12/21 01:38:59;;;;;;;4.87;3.00;;;10.20;82.90;;;13.25;50.18;97411.97;5043417;28;20053;-55
2022/12/21 01:41:29;;;;;;;4.83;2.83;;;10.10;83.50;;;13.25;50.05;97413.84;5044007;28;20048;-55
2022/12/21 01:44:02;;;;;;;3.50;2.40;;;10.10;83.70;;;13.23;49.99;97415.88;5044489;28;20041;-54
2022/12/21 01:46:45;;;;;;;4.50;2.58;;;10.10;83.90;;;13.21;49.90;97413.38;5059962;28;20225;-51
2022/12/21 01:49:18;;;;;;;4.93;2.42;;;10.10;84.50;;;13.19;50.15;97407.38;5027532;28;20045;-53
2022/12/21 01:51:52;;;;;;;4.40;2.72;;;10.10;84.60;;;13.16;50.43;97403.25;5042893;28;20056;-55
2022/12/21 01:54:26;;;;;;;5.35;3.53;;;10.10;84.70;;;13.19;50.36;97404.72;5041077;28;20052;-54
2022/12/21 01:56:59;;;;;;;4.73;3.17;;;10.10;85.10;;;13.17;50.58;97396.88;5044399;28;20041;-54
2022/12/21 01:59:35;;;;;;;5.53;3.10;;;10.10;85.30;;;13.13;50.68;97400.09;5027040;28;20045;-55
2022/12/21 02:02:17;;;;;;;4.63;3.20;;;10.00;85.60;;;13.12;50.66;97401.09;5043615;28;20041;-53
2022/12/21 02:04:46;;;;;;;7.20;3.07;;;10.00;86.40;;;13.15;50.59;97395.41;5043117;28;20037;-53
2022/12/21 02:07:16;;;;;;;4.13;2.80;;;10.00;87.00;;;13.14;50.57;97391.91;5042991;28;20056;-52
2022/12/21 02:09:44;;;;;;;3.67;2.70;;;10.00;87.20;;;13.15;50.74;97395.41;5044394;28;20059;-51
2022/12/21 02:12:15;;;;;;;4.37;2.67;;;10.00;87.50;;;13.15;50.77;97393.56;5043195;28;20049;-60
2022/12/21 02:14:46;;;;;;;4.53;3.03;;;10.00;88.30;;;13.14;51.05;97391.91;5043042;28;20045;-60
2022/12/21 02:17:36;;;;;;;5.43;2.63;;;9.90;89.20;;;13.13;50.88;97392.91;5042889;28;20052;-60
2022/12/21 02:20:44;;;;;;;6.93;2.97;;;9.90;90.60;;;13.14;50.89;97389.22;5026694;28;20288;-60
2022/12/21 02:23:50;;;;;;;3.90;2.77;;;9.90;91.40;;;13.13;51.25;97392.91;5042133;28;20052;-60
2022/12/21 02:26:59;;;;;;;4.97;2.70;;;9.90;92.60;;;13.12;51.21;97380.53;5041270;28;20050;-60
2022/12/21 02:30:04;;;;;;;4.13;2.80;;;9.80;93.40;;;13.07;51.26;97382.94;5035255;28;20060;-60
2022/12/21 02:33:14;;;;;;;4.90;2.90;;;9.80;96.00;;;13.06;51.73;97393.81;5034776;28;20057;-60
2022/12/21 02:36:04;;;;;;;5.57;3.10;;;9.80;98.70;;;13.06;51.67;97389.28;5022410;28;20056;-60
2022/12/21 02:38:46;;;;;;;6.90;2.77;;;9.70;99.60;;;13.05;52.00;97387.66;5036497;28;20056;-60
2022/12/21 02:41:54;;;;;;;3.17;2.55;;;9.70;99.90;;;13.02;51.84;97382.66;5025821;28;20052;-60
2022/12/21 02:44:27;;;;;;;5.33;2.40;;;9.70;99.90;;;13.03;52.37;97378.13;5027531;28;20045;-60
2022/12/21 02:47:20;;;;;;;3.92;2.90;;;9.70;99.90;;;12.98;52.22;97373.34;5043062;28;20043;-60
2022/12/21 02:50:10;;;;;;;3.30;2.80;;;9.60;99.90;;;12.96;52.40;97380.72;5038701;28;20052;-60
2022/12/21 02:52:47;;;;;;;8.43;3.00;;;9.60;99.90;;;12.96;52.85;97375.38;5026409;28;20049;-61
2022/12/21 02:55:15;;;;;;;3.90;2.90;;;9.60;99.90;;;12.96;52.86;97378.06;5042142;28;20064;-60
2022/12/21 02:57:45;;;;;;;3.03;2.50;;;9.60;99.90;;;12.95;53.09;97373.72;5041198;28;20391;-60
2022/12/21 03:00:18;;;;;;;5.27;3.20;;;9.60;99.90;;;12.92;52.98;97366.06;5041806;28;20382;-60
2022/12/21 03:06:18;;;;;;;6.40;3.30;;;9.60;99.90;;;12.86;52.93;97364.97;5037592;28;20252;-60
2022/12/21 03:09:17;;;;;;;5.47;2.73;;;9.60;99.90;;;12.87;53.21;97368.44;5036760;28;20069;-60
2022/12/21 03:12:12;;;;;;;5.40;3.50;;;9.50;99.90;;;12.82;53.19;97371.69;5036115;28;20053;-60
2022/12/21 03:15:13;;;;;;;5.60;2.70;;;9.50;99.90;;;12.79;53.14;97364.88;5017810;28;20046;-60
2022/12/21 03:18:11;;;;;;;5.10;2.93;;;9.50;99.90;;;12.80;53.52;97369.19;5036763;28;20034;-61
2022/12/21 03:21:19;;;;;;;4.10;2.87;;;9.50;99.90;;;12.76;53.09;97375.91;5022703;28;20079;-60
2022/12/21 03:24:22;;;;;;;9.67;3.27;;;9.50;99.90;;;12.76;53.41;97380.44;5035244;28;20041;-60
2022/12/21 03:26:59;;;;;;;4.13;2.77;;;9.40;99.90;;;12.78;53.87;97378.41;5036568;28;20291;-60
2022/12/21 03:29:36;;;;;;;4.53;3.03;;;9.40;99.90;;;12.77;54.03;97376.72;5041655;28;20055;-60
2022/12/21 03:32:16;;;;;;;3.23;2.77;;;9.50;99.90;;;12.77;53.83;97366.03;5040859;28;20247;-61
2022/12/21 03:34:49;;;;;;;5.07;2.60;;;9.40;99.90;;;12.78;54.04;97368.53;5041385;28;20033;-60
2022/12/21 03:37:31;;;;;;;4.90;2.38;;;9.40;99.90;;;12.78;53.70;97368.53;5041391;28;20048;-60
2022/12/21 03:40:19;;;;;;;3.33;2.70;;;9.40;99.90;;;12.76;53.90;97364.41;5041032;28;20046;-60
2022/12/21 03:43:15;;;;;;;3.83;2.40;;;9.40;99.90;;;12.76;54.13;97361.72;5035581;28;20049;-60
2022/12/21 03:45:54;;;;;;;6.00;2.87;;;9.40;99.90;;;12.71;54.29;97366.78;5036334;28;20323;-60
2022/12/21 03:48:56;;;;;;;4.90;2.80;;;9.40;99.90;;;12.69;54.08;97361.59;5041148;28;20049;-60
2022/12/21 03:52:09;;;;;;;3.87;2.43;;;9.40;99.90;;;12.69;54.10;97364.28;5042121;28;20037;-61
2022/12/21 03:55:02;;;;;;;3.47;2.33;;;9.40;99.90;;;12.68;54.02;97351.94;5034136;28;20037;-61
2022/12/21 03:57:30;;;;;;;7.07;2.80;;;9.40;99.90;;;12.69;54.55;97361.59;5034128;28;20041;-60
2022/12/21 04:00:02;;;;;;;5.63;2.13;;;9.40;99.90;;;12.66;55.16;97361.13;5042570;28;20056;-60
2022/12/21 04:02:54;;;;;;;3.83;2.40;;;9.40;99.90;;;12.70;54.82;97362.47;5044072;28;20041;-60
2022/12/21 04:05:48;;;;;;;3.50;2.50;;;9.40;99.90;;;12.69;54.65;97358.94;5042090;28;20068;-60
2022/12/21 04:08:16;;;;;;;3.40;2.13;;;9.50;99.90;;;12.68;55.11;97351.94;5040980;28;20049;-60
2022/12/21 04:10:47;;;;;;;3.50;2.07;;;9.50;99.90;;;12.68;55.47;97343.94;5040845;28;20351;-61
2022/12/21 04:13:15;;;;;;;3.67;2.83;;;9.50;99.90;;;12.71;55.02;97351.56;5041567;28;20048;-61
2022/12/21 04:21:17;;;;;;;4.50;2.67;;;9.60;99.90;;;12.77;55.16;97347.34;5041793;28;20041;-60
2022/12/21 04:29:18;;;;;;;15.30;8.30;;;9.70;99.90;;;12.80;55.17;97349.66;5041819;28;20051;-60
2022/12/21 04:31:46;;;;;;;18.63;7.93;;;9.70;99.90;;;12.83;55.28;97346.63;5041462;28;20041;-61
2022/12/21 04:34:14;;;;;;;17.73;7.43;;;9.70;99.90;;;12.86;55.06;97345.44;5041258;28;20045;-61
2022/12/21 04:39:28;;;;;;;11.13;5.47;;;9.70;99.90;;;12.89;55.41;97353.06;5045606;28;20037;-61
2022/12/21 04:41:56;;;;;;;11.30;5.60;;;9.70;99.90;;;12.87;55.42;97352.44;5045262;28;20045;-61
2022/12/21 04:44:23;;;;;;;6.47;3.70;;;9.70;99.90;;;12.89;55.48;97353.06;5045669;28;20049;-61
2022/12/21 04:46:51;;;;;;;4.47;2.60;;;9.70;99.90;;;12.89;55.54;97348.59;5045482;28;20038;-61
2022/12/21 04:49:19;;;;;;;3.63;2.27;;;9.70;99.90;;;12.90;55.09;97344.06;5044417;28;20055;-61
2022/12/21 04:51:47;;;;;;;3.47;2.03;;;9.80;99.90;;;12.90;55.27;97344.06;5045162;28;20423;-61
2022/12/21 04:54:14;;;;;;;2.90;1.93;;;9.80;99.90;;;12.92;55.21;97345.53;5042935;28;20046;-61
2022/12/21 04:56:43;;;;;;;4.17;2.40;;;9.80;99.90;;;12.93;55.33;97343.66;5045512;28;20100;-60
2022/12/21 04:59:10;;;;;;;2.73;1.80;;;9.80;99.90;;;12.96;55.25;97344.13;5045332;28;20045;-61
2022/12/21 05:01:38;;;;;;;3.80;2.20;;;9.80;99.90;;;12.99;55.31;97353.66;5044685;28;20049;-61
2022/12/21 05:04:14;;;;;;;3.57;2.23;;;9.80;99.90;;;13.02;55.43;97353.25;5045360;28;20143;-61
2022/12/21 05:06:41;;;;;;;5.57;2.30;;;9.90;99.90;;;13.02;55.08;97347.09;5045167;28;20250;-61
2022/12/21 05:09:15;;;;;;;3.40;2.00;;;9.90;99.90;;;13.05;55.02;97346.75;5045210;28;20049;-61
2022/12/21 05:11:42;;;;;;;3.60;2.40;;;9.90;99.90;;;13.07;54.97;97347.38;5043609;28;20044;-61
2022/12/21 05:14:11;;;;;;;2.60;1.93;;;9.90;99.90;;;13.09;55.21;97345.34;5027574;28;20629;-61
2022/12/21 05:16:39;;;;;;;2.60;1.80;;;9.90;99.90;;;13.09;55.04;97343.50;5044063;28;20048;-61
2022/12/21 05:19:07;;;;;;;2.73;2.30;;;9.90;99.90;;;13.08;55.19;97346.34;5045114;28;20056;-61
2022/12/21 05:21:35;;;;;;;3.20;2.10;;;9.90;99.90;;;13.06;55.54;97343.03;5036272;28;20362;-61
2022/12/21 05:24:03;;;;;;;6.10;3.07;;;9.90;99.90;;;13.02;55.84;97341.75;5043722;28;20287;-61
2022/12/21 05:26:30;;;;;;;2.97;2.17;;;9.90;99.90;;;13.04;55.41;97345.91;5043833;28;20037;-61
2022/12/21 05:28:58;;;;;;;3.63;2.57;;;9.90;99.90;;;13.04;55.58;97347.75;5044923;28;20051;-61
2022/12/21 05:31:26;;;;;;;5.07;3.33;;;10.00;99.90;;;13.05;55.60;97330.72;5044071;28;20370;-61
2022/12/21 05:33:53;;;;;;;2.50;1.93;;;10.00;99.90;;;13.09;55.69;97337.34;5044451;28;20067;-61
2022/12/21 05:36:22;;;;;;;2.50;1.70;;;10.00;99.90;;;13.11;55.56;97333.47;5044790;28;20152;-61
2022/12/21 05:38:50;;;;;;;3.17;1.53;;;10.10;99.90;;;13.16;55.33;97339.09;5043412;28;20051;-61
2022/12/21 05:41:18;;;;;;;2.20;2.00;;;10.10;99.90;;;13.15;55.58;97334.75;5044026;28;20053;-61
2022/12/21 05:43:46;;;;;;;2.57;1.87;;;10.10;99.90;;;13.19;55.37;97338.69;5044314;28;20049;-61
2022/12/21 05:46:14;;;;;;;3.47;2.43;;;10.10;99.90;;;13.22;55.70;97329.47;5043430;28;20362;-61
2022/12/21 05:48:54;;;;;;;2.60;1.60;;;10.10;99.90;;;13.26;55.23;97333.47;5043306;28;20045;-61
2022/12/21 05:51:22;;;;;;;2.40;1.70;;;10.10;99.90;;;13.28;55.45;97327.91;5044319;28;20052;-61
2022/12/21 05:53:50;;;;;;;4.33;1.80;;;10.20;99.90;;;13.29;55.40;97334.94;5042784;28;20055;-61
2022/12/21 05:56:18;;;;;;;4.30;2.10;;;10.20;99.90;;;13.30;55.30;97332.09;5043179;28;20045;-61
2022/12/21 05:58:46;;;;;;;6.23;2.70;;;10.20;99.90;;;13.31;55.42;97332.94;5043160;28;20040;-61
2022/12/21 06:01:15;;;;;;;3.20;2.50;;;10.20;99.90;;;13.33;55.59;97329.03;5044332;28;20237;-61
2022/12/21 06:03:42;;;;;;;2.50;1.83;;;10.20;99.90;;;13.34;55.35;97321.88;5043913;28;20041;-61
2022/12/21 06:06:14;;;;;;;3.37;2.17;;;10.20;99.90;;;13.36;55.56;97320.66;5044091;28;20053;-60
2022/12/21 06:08:43;;;;;;;14.90;7.37;;;10.20;99.90;;;13.36;55.21;97322.50;5036816;28;20044;-61
2022/12/21 06:11:18;;;;;;;3.30;2.50;;;10.20;99.90;;;13.36;55.56;97328.69;5043639;28;20071;-61
2022/12/21 06:13:47;;;;;;;2.60;1.97;;;10.20;99.90;;;13.37;55.42;97321.47;5042759;28;20045;-61
2022/12/21 06:16:18;;;;;;;10.07;5.40;;;10.20;99.90;;;13.38;55.68;97329.31;5026575;28;20053;-61
2022/12/21 06:18:47;;;;;;;3.77;2.27;;;10.20;99.90;;;13.38;55.49;97326.66;5042751;28;20055;-61
2022/12/21 06:21:16;;;;;;;3.70;2.00;;;10.20;99.90;;;13.36;55.39;97326.00;5026580;28;20053;-61
2022/12/21 06:23:45;;;;;;;6.03;3.20;;;10.10;99.90;;;13.35;55.39;97323.50;5043423;28;20369;-61
2022/12/21 06:26:18;;;;;;;4.80;2.03;;;10.10;99.90;;;13.36;55.82;97328.69;5042708;28;20051;-61
2022/12/21 06:28:51;;;;;;;4.87;2.60;;;10.10;99.90;;;13.35;55.91;97324.34;5043529;28;20221;-61
2022/12/21 06:31:21;;;;;;;3.53;2.20;;;10.10;99.90;;;13.35;56.02;97323.50;5043635;28;20051;-61
2022/12/21 06:33:49;;;;;;;3.30;1.93;;;10.10;99.90;;;13.32;56.00;97324.72;5043190;28;20041;-61
2022/12/21 06:36:17;;;;;;;3.20;2.00;;;10.00;99.90;;;13.33;55.72;97334.38;5042501;28;20045;-61
2022/12/21 06:38:45;;;;;;;2.40;1.70;;;10.10;99.90;;;13.31;55.83;97333.75;5042546;28;20041;-61
2022/12/21 06:41:16;;;;;;;5.83;2.00;;;10.00;99.90;;;13.31;55.98;97335.59;5043299;28;20368;-61
2022/12/21 06:43:45;;;;;;;3.50;1.93;;;10.00;99.90;;;13.29;56.08;97330.41;5042064;28;20045;-61
2022/12/21 06:46:16;;;;;;;5.17;1.67;;;10.00;99.90;;;13.31;56.42;97327.56;5042203;28;20045;-61
2022/12/21 06:48:44;;;;;;;4.50;2.10;;;10.10;99.90;;;13.28;56.44;97328.75;5043207;28;20210;-61
2022/12/21 06:51:20;;;;;;;4.57;2.03;;;10.00;99.90;;;13.27;56.53;97327.09;5041988;28;20049;-61
2022/12/21 06:53:51;;;;;;;3.00;2.13;;;10.10;99.90;;;13.27;56.64;97328.94;5019163;28;20048;-61
2022/12/21 06:56:30;;;;;;;2.88;1.98;;;10.00;99.90;;;13.29;56.50;97329.56;5026261;28;20375;-61
2022/12/21 06:58:58;;;;;;;2.47;1.63;;;10.10;99.90;;;13.27;56.69;97326.25;5040463;28;20049;-61
2022/12/21 07:01:35;;;;;;;1.97;1.47;;;10.00;99.90;;;13.29;56.78;97332.25;5041797;28;20279;-62
2022/12/21 07:04:03;;;;;;;3.37;1.70;;;10.10;99.90;;;13.27;56.63;97329.75;5042600;28;20056;-61
2022/12/21 07:06:32;;;;;;;3.07;1.73;;;10.10;99.90;;;13.27;56.90;97331.63;5042819;28;20209;-61
2022/12/21 07:09:00;;;;;;;2.30;1.93;;;10.10;99.90;;;13.27;56.84;97335.09;5041421;28;20056;-61
2022/12/21 07:11:29;;;;;;;3.50;1.77;;;10.10;99.90;;;13.28;57.22;97342.13;5042643;28;20045;-61
2022/12/21 07:13:59;;;;;;;2.87;1.83;;;10.10;99.90;;;13.27;56.98;97337.78;5042956;28;20244;-60
2022/12/21 07:16:27;;;;;;;3.37;2.10;;;10.10;99.90;;;13.27;57.32;97340.44;5041876;28;20051;-61
2022/12/21 07:18:55;;;;;;;3.23;1.47;;;10.10;99.90;;;13.26;57.53;97333.47;5042491;28;20255;-61
2022/12/21 07:21:24;;;;;;;2.50;2.00;;;10.10;99.90;;;13.27;57.48;97339.63;5042483;28;20053;-61
2022/12/21 07:23:54;;;;;;;3.50;1.73;;;10.10;99.90;;;13.25;57.39;97337.13;5042364;28;20044;-61
2022/12/21 07:26:23;;;;;;;3.70;1.60;;;10.10;99.90;;;13.28;57.38;97336.78;5042557;28;20051;-60
2022/12/21 07:28:54;;;;;;;2.30;1.47;;;10.20;99.90;;;13.28;57.50;97338.59;5041126;28;20343;-61
2022/12/21 07:31:25;;;;;;;3.30;1.73;;;10.10;99.90;;;13.27;57.53;97340.44;5042421;28;20041;-61
2022/12/21 07:33:53;;;;;;;4.57;2.23;;;10.20;99.90;;;13.27;57.74;97340.44;5042453;28;20244;-61
2022/12/21 07:36:21;;;;;;;5.23;2.03;;;10.20;99.90;;;13.29;57.88;97348.28;5041869;28;20049;-60
2022/12/21 07:38:49;;;;;;;2.57;1.70;;;10.20;99.90;;;13.29;57.96;97349.13;5042248;28;20116;-62
2022/12/21 07:41:17;;;;;;;4.10;1.80;;;10.30;99.90;;;13.29;58.09;97356.31;5042220;28;20370;-61
2022/12/21 07:43:46;;;;;;;4.00;1.90;;;10.30;99.90;;;13.30;58.03;97352.63;5041736;28;20046;-61
2022/12/21 07:46:23;;;;;;;2.47;1.43;;;10.30;99.90;;;13.26;58.07;97360.19;5041604;28;20044;-61
2022/12/21 07:48:52;;;;;;;2.33;1.43;;;10.20;99.90;;;13.24;58.20;97358.69;5041461;28;20063;-60
2022/12/21 07:51:20;;;;;;;2.97;1.63;;;10.20;99.90;;;13.25;58.46;97363.88;5042140;28;20041;-60
2022/12/21 07:53:47;;;;;;;3.17;1.40;;;10.20;99.90;;;13.17;58.67;97361.28;5040130;28;20355;-60
2022/12/21 07:56:17;;;;;;;2.77;1.80;;;10.20;99.90;;;13.16;58.50;97363.16;5041161;28;20054;-60
2022/12/21 07:58:46;;;;;;;2.83;2.03;;;10.20;99.90;;;13.16;58.99;97360.47;5041154;28;20355;-59
2022/12/21 08:01:16;;;;;;;3.63;1.87;;;10.10;99.90;;;13.20;58.96;97360.91;5024262;28;20056;-60
2022/12/21 08:03:45;;;;;;;4.43;2.10;;;10.20;99.90;;;13.23;58.47;97357.88;5033015;28;20045;-60
2022/12/21 08:06:15;;;;;;;5.07;2.40;;;10.20;99.90;;;13.27;58.42;97355.66;5024767;28;20049;-60
2022/12/21 08:08:43;;;;;;;3.43;1.80;;;10.20;99.90;;;13.31;58.43;97357.81;5033009;28;20042;-60
2022/12/21 08:11:19;;;;;;;5.63;2.20;;;10.20;99.90;;;13.32;58.54;97366.69;5041470;28;20053;-60
2022/12/21 08:13:48;;;;;;;5.90;2.07;;;10.20;99.90;;;13.31;58.44;97368.50;5034276;28;20041;-61
2022/12/21 08:16:18;;;;;;;4.67;1.70;;;10.20;99.90;;;13.32;58.39;97378.19;5042554;28;20051;-60
2022/12/21 08:18:47;;;;;;;2.43;1.87;;;10.20;99.90;;;13.33;58.64;97371.81;5033031;28;20247;-60
2022/12/21 08:21:16;;;;;;;2.63;1.83;;;10.20;99.90;;;13.35;58.42;97375.13;5041808;28;20045;-62
2022/12/21 08:23:44;;;;;;;3.40;2.03;;;10.30;99.90;;;13.35;58.58;97382.34;5033464;28;20045;-61
2022/12/21 08:26:13;;;;;;;3.07;2.00;;;10.30;99.90;;;13.38;58.54;97387.31;5041352;28;20046;-61
2022/12/21 08:28:41;;;;;;;2.60;1.87;;;10.30;99.90;;;13.41;58.61;97383.44;5024266;28;20370;-60
2022/12/21 08:31:14;;;;;;;3.17;1.80;;;10.40;99.90;;;13.43;58.25;97390.25;5040354;28;20050;-60
2022/12/21 08:33:43;;;;;;;8.30;2.10;;;10.40;99.90;;;13.45;58.30;97387.41;5041175;28;20052;-60
2022/12/21 08:36:15;;;;;;;3.50;2.33;;;10.40;99.90;;;13.46;58.25;97387.22;5041126;28;20059;-60
2022/12/21 08:38:44;;;;;;;4.07;2.10;;;10.40;99.90;;;13.43;58.04;97390.25;5041757;28;20052;-60
2022/12/21 08:41:32;;;;;;;4.53;2.83;;;10.40;99.90;;;13.46;57.86;97387.22;5041191;28;20076;-60
2022/12/21 08:43:59;;;;;;;3.60;2.43;;;10.40;99.90;;;13.46;57.94;97392.56;5041416;28;20276;-60
2022/12/21 08:46:27;;;;;;;4.97;2.57;;;10.40;99.90;;;13.43;58.21;97386.75;5041396;28;20049;-60
2022/12/21 08:48:55;;;;;;;5.43;3.00;;;10.40;99.90;;;13.44;58.14;97389.25;5040623;28;20034;-60
2022/12/21 08:51:23;;;;;;;5.07;3.37;;;10.30;99.90;;;13.47;57.93;97385.38;5040207;28;20056;-60
2022/12/21 08:53:53;;;;;;;5.03;3.03;;;10.30;99.90;;;13.48;57.90;97395.88;5041270;28;20038;-60
2022/12/21 08:56:22;;;;;;;4.93;2.63;;;10.30;99.90;;;13.48;57.64;97397.72;5041261;28;20072;-60
2022/12/21 08:58:50;;;;;;;4.30;2.23;;;10.30;99.90;;;13.46;57.65;97391.75;5039695;28;20041;-60
2022/12/21 09:01:20;;;;;;;7.60;3.53;;;10.30;99.90;;;13.48;57.76;97389.72;5039773;28;20252;-60
2022/12/21 09:03:48;;;;;;;6.57;3.60;;;10.30;99.90;;;13.42;58.06;97385.13;5033278;28;20267;-60
2022/12/21 09:06:16;;;;;;;5.37;2.53;;;10.30;99.90;;;13.41;57.93;97384.25;5041154;28;20051;-60
2022/12/21 09:08:44;;;;;;;4.50;2.77;;;10.20;99.90;;;13.40;57.88;97390.63;5040444;28;20037;-60
2022/12/21 09:11:14;;;;;;;3.07;2.27;;;10.20;99.90;;;13.38;57.96;97384.66;5041041;28;20045;-60
2022/12/21 09:13:42;;;;;;;3.50;2.47;;;10.20;99.90;;;13.38;57.75;97392.66;5040783;28;20041;-60
2022/12/21 09:16:23;;;;;;;5.40;2.73;;;10.20;99.90;;;13.41;57.82;97388.78;5032267;28;20383;-60
2022/12/21 09:18:51;;;;;;;2.43;1.83;;;10.20;99.90;;;13.41;57.89;97405.66;5034456;28;20064;-60
2022/12/21 09:21:22;;;;;;;5.23;3.03;;;10.20;99.90;;;13.42;57.69;97409.19;5028740;28;20052;-60
2022/12/21 09:23:51;;;;;;;6.03;2.63;;;10.20;99.90;;;13.40;57.66;97406.69;5042199;28;20049;-60
2022/12/21 09:26:19;;;;;;;3.93;2.90;;;10.20;99.90;;;13.39;57.60;97399.66;5043551;28;20286;-60
2022/12/21 09:28:47;;;;;;;5.13;2.47;;;10.20;99.90;;;13.37;57.81;97397.16;5044011;28;20040;-60
2022/12/21 09:31:19;;;;;;;4.07;2.40;;;10.20;99.90;;;13.39;57.61;97388.97;5043487;28;20048;-60
2022/12/21 09:33:54;;;;;;;3.67;2.57;;;10.20;99.90;;;13.38;57.68;97388.16;5043386;28;20045;-60
2022/12/21 09:36:25;;;;;;;3.80;2.50;;;10.20;99.90;;;13.40;57.71;97393.31;5044899;28;20049;-60
2022/12/21 09:38:55;;;;;;;5.90;2.67;;;10.20;99.90;;;13.38;57.72;97393.50;5044553;28;20239;-60
2022/12/21 09:41:55;;;;;;;2.90;2.10;;;10.20;99.90;;;13.36;57.70;97408.06;5044580;28;20371;-60
2022/12/21 09:44:50;;;;;;;5.60;2.47;;;10.30;99.90;;;13.35;57.66;97412.56;5042918;28;20049;-60
2022/12/21 09:47:59;;;;;;;3.27;2.77;;;10.30;99.90;;;13.37;57.62;97421.22;5044435;28;20046;-60
2022/12/21 09:50:36;;;;;;;3.67;2.50;;;10.30;99.90;;;13.36;57.55;97418.75;5041240;28;20049;-60
2022/12/21 09:53:29;;;;;;;5.57;2.70;;;10.30;99.90;;;13.35;57.56;97422.44;5042959;28;20057;-60
2022/12/21 09:56:00;;;;;;;5.83;2.60;;;10.30;99.90;;;13.37;57.82;97418.56;5036147;28;20042;-60
2022/12/21 09:58:42;;;;;;;4.40;2.20;;;10.30;99.90;;;13.39;57.90;97424.53;5042903;28;20048;-60
2022/12/21 10:01:42;;;;;;;4.60;2.67;;;10.40;99.90;;;13.41;57.74;97418.19;5042859;28;20045;-60
2022/12/21 10:04:43;;;;;;;4.73;2.60;;;10.40;99.90;;;13.45;57.48;97416.81;5043789;28;20065;-60
2022/12/21 10:07:59;;;;;;;4.00;3.07;;;10.40;99.90;;;13.48;57.55;97416.47;5044303;28;20057;-60
2022/12/21 10:10:35;;;;;;;3.60;2.50;;;10.40;99.90;;;13.52;57.57;97417.75;5043551;28;20053;-60
2022/12/21 10:13:40;;;;;;;3.33;2.07;;;10.40;99.90;;;13.51;57.54;97413.41;5043534;28;20049;-60
2022/12/21 10:16:33;;;;;;;;;;;10.50;99.90;;;13.66;57.17;97418.75;5044395;28;20047;-60
2022/12/21 10:19:52;;;;;;;4.30;2.53;;;10.50;99.90;;;13.63;57.30;97416.44;5043776;28;20293;-60
2022/12/21 10:22:31;;;;;;;3.97;2.83;;;10.50;99.90;;;13.59;57.54;97422.16;5038446;28;20056;-60
2022/12/21 10:25:41;;;;;;;4.20;2.60;;;10.50;99.90;;;13.62;57.51;97426.31;5042547;28;20075;-60
2022/12/21 10:28:37;;;;;;;5.63;2.87;;;10.50;99.90;;;13.71;57.46;97433.22;5038088;28;20244;-59
2022/12/21 10:31:08;;;;;;;3.20;2.47;;;10.60;99.90;;;13.83;57.33;97427.41;5043490;28;20244;-60
2022/12/21 10:33:43;;;;;;;4.53;2.60;;;10.80;99.90;;;13.88;57.37;97422.28;5042814;28;20047;-60
2022/12/21 10:36:22;;;;;;;4.10;2.20;;;10.80;99.90;;;13.95;57.54;97421.34;5043857;28;20228;-60
2022/12/21 10:38:50;;;;;;;7.60;2.80;;;10.90;99.90;;;13.97;57.31;97410.47;5043242;28;20375;-60
2022/12/21 10:41:25;;;;;;;4.00;2.50;;;11.00;99.90;;;13.93;57.39;97418.03;5043343;28;20378;-60
2022/12/21 10:43:56;;;;;;;4.70;2.77;;;10.90;99.90;;;13.90;57.33;97409.56;5043130;28;20099;-60
2022/12/21 10:46:31;;;;;;;5.90;3.77;;;10.90;99.90;;;13.85;57.57;97407.44;5042180;28;20041;-60
2022/12/21 10:49:14;;;;;;;5.93;3.27;;;10.90;99.90;;;13.77;57.58;97408.38;5041912;28;20079;-60
2022/12/21 10:51:42;;;;;;;6.27;3.17;;;10.80;99.90;;;13.78;57.81;97403.84;5040943;28;20054;-60
2022/12/21 10:54:10;;;;;;;5.93;3.20;;;10.90;99.90;;;13.75;57.67;97391.69;5041982;28;20075;-60
2022/12/21 10:56:48;;;;;;;5.27;3.37;;;10.90;99.90;;;13.79;57.85;97400.19;5039099;28;20373;-60
2022/12/21 10:59:26;;;;;;;3.43;2.40;;;10.80;99.90;;;13.82;57.79;97396.28;5041863;28;20047;-60
2022/12/21 11:01:54;;;;;;;4.97;3.00;;;10.90;99.90;;;13.84;57.70;97394.25;5031371;28;20056;-60
2022/12/21 11:04:24;;;;;;;5.57;2.70;;;10.90;99.90;;;13.85;57.81;97399.44;5021854;28;20053;-60
2022/12/21 11:07:27;;;;;;;6.20;2.40;;;10.90;99.90;;;13.87;57.64;97396.56;5041642;28;20037;-60
2022/12/21 11:10:29;;;;;;;3.10;1.97;;;11.00;99.90;;;13.95;57.54;97396.44;5037485;28;20239;-60